sensor_id;sensor_type;location;lat;lon;timestamp;temperature;humidity
73586;DHT22;61865;50.232;18.614;2023-02-15T00:00:35;4.30;99.90
73586;DHT22;61865;50.232;18.614;2023-02-15T00:02:57;4.30;99.90
73586;DHT22;61865;50.232;18.614;2023-02-15T00:05:19;4.20;99.90
73586;DHT22;61865;50.232;18.614;2023-02-15T00:07:43;4.20;99.90
73586;DHT22;61865;50.232;18.614;2023-02-15T00:10:06;4.20;99.90
73586;DHT22;61865;50.232;18.614;2023-02-15T00:12:28;4.30;99.90
73586;DHT22;61865;50.232;18.614;2023-02-15T00:14:50;4.30;99.90
73586;DHT22;61865;50.232;18.614;2023-02-15T00:17:13;4.30;99.90
73586;DHT22;61865;50.232;18.614;2023-02-15T00:19:35;4.30;99.90
73586;DHT22;61865;50.232;18.614;2023-02-15T00:21:57;4.20;99.90
73586;DHT22;61865;50.232;18.614;2023-02-15T00:24:21;4.20;99.90
73586;DHT22;61865;50.232;18.614;2023-02-15T00:26:44;4.20;99.90
73586;DHT22;61865;50.232;18.614;2023-02-15T00:29:06;4.20;99.90
73586;DHT22;61865;50.232;18.614;2023-02-15T00:31:30;4.10;99.90
73586;DHT22;61865;50.232;18.614;2023-02-15T00:33:52;4.20;99.90
73586;DHT22;61865;50.232;18.614;2023-02-15T00:36:14;4.30;99.90
73586;DHT22;61865;50.232;18.614;2023-02-15T00:38:36;4.20;99.90
73586;DHT22;61865;50.232;18.614;2023-02-15T00:41:01;4.20;99.90
73586;DHT22;61865;50.232;18.614;2023-02-15T00:43:24;4.30;99.90
73586;DHT22;61865;50.232;18.614;2023-02-15T00:45:46;4.30;99.90
73586;DHT22;61865;50.232;18.614;2023-02-15T00:48:08;4.30;99.90
73586;DHT22;61865;50.232;18.614;2023-02-15T00:50:31;4.40;99.90
73586;DHT22;61865;50.232;18.614;2023-02-15T00:52:53;4.40;99.90
73586;DHT22;61865;50.232;18.614;2023-02-15T00:55:15;4.40;99.90
73586;DHT22;61865;50.232;18.614;2023-02-15T00:57:38;4.30;99.90
73586;DHT22;61865;50.232;18.614;2023-02-15T01:00:00;4.30;99.90
73586;DHT22;61865;50.232;18.614;2023-02-15T01:02:22;4.20;99.90
73586;DHT22;61865;50.232;18.614;2023-02-15T01:04:44;4.20;99.90
73586;DHT22;61865;50.232;18.614;2023-02-15T01:07:06;4.30;99.90
73586;DHT22;61865;50.232;18.614;2023-02-15T01:09:28;4.30;99.90
73586;DHT22;61865;50.232;18.614;2023-02-15T01:11:50;4.30;99.90
73586;DHT22;61865;50.232;18.614;2023-02-15T01:14:13;4.20;99.90
73586;DHT22;61865;50.232;18.614;2023-02-15T01:16:35;4.20;99.90
73586;DHT22;61865;50.232;18.614;2023-02-15T01:18:57;4.20;99.90
73586;DHT22;61865;50.232;18.614;2023-02-15T01:21:21;4.20;99.90
73586;DHT22;61865;50.232;18.614;2023-02-15T01:23:44;4.20;99.90
73586;DHT22;61865;50.232;18.614;2023-02-15T01:26:06;4.20;99.90
73586;DHT22;61865;50.232;18.614;2023-02-15T01:28:28;4.20;99.90
73586;DHT22;61865;50.232;18.614;2023-02-15T01:30:52;4.20;99.90
73586;DHT22;61865;50.232;18.614;2023-02-15T01:33:14;4.20;99.90
73586;DHT22;61865;50.232;18.614;2023-02-15T01:35:38;4.20;99.90
73586;DHT22;61865;50.232;18.614;2023-02-15T01:37:59;4.10;99.90
73586;DHT22;61865;50.232;18.614;2023-02-15T01:40:22;4.10;99.90
73586;DHT22;61865;50.232;18.614;2023-02-15T01:42:45;4.10;99.90
73586;DHT22;61865;50.232;18.614;2023-02-15T01:45:21;4.00;99.90
73586;DHT22;61865;50.232;18.614;2023-02-15T01:47:48;4.00;99.90
73586;DHT22;61865;50.232;18.614;2023-02-15T01:50:13;4.00;99.90
73586;DHT22;61865;50.232;18.614;2023-02-15T01:52:38;3.90;99.90
73586;DHT22;61865;50.232;18.614;2023-02-15T01:55:03;3.90;99.90
73586;DHT22;61865;50.232;18.614;2023-02-15T01:57:27;3.80;99.90
73586;DHT22;61865;50.232;18.614;2023-02-15T01:59:53;3.80;99.90
73586;DHT22;61865;50.232;18.614;2023-02-15T02:02:18;3.80;99.90
73586;DHT22;61865;50.232;18.614;2023-02-15T02:04:49;3.80;99.90
73586;DHT22;61865;50.232;18.614;2023-02-15T02:07:12;3.70;99.90
73586;DHT22;61865;50.232;18.614;2023-02-15T02:09:36;3.70;99.90
73586;DHT22;61865;50.232;18.614;2023-02-15T02:12:00;3.60;99.90
73586;DHT22;61865;50.232;18.614;2023-02-15T02:14:23;3.60;99.90
73586;DHT22;61865;50.232;18.614;2023-02-15T02:16:51;3.50;99.90
73586;DHT22;61865;50.232;18.614;2023-02-15T02:19:33;3.50;99.90
73586;DHT22;61865;50.232;18.614;2023-02-15T02:25:28;3.30;99.90
73586;DHT22;61865;50.232;18.614;2023-02-15T02:28:06;3.30;99.90
73586;DHT22;61865;50.232;18.614;2023-02-15T02:30:49;3.20;99.90
73586;DHT22;61865;50.232;18.614;2023-02-15T02:33:45;3.20;99.90
73586;DHT22;61865;50.232;18.614;2023-02-15T02:36:16;3.10;99.90
73586;DHT22;61865;50.232;18.614;2023-02-15T02:38:48;3.00;99.90
73586;DHT22;61865;50.232;18.614;2023-02-15T02:41:17;2.90;99.90
73586;DHT22;61865;50.232;18.614;2023-02-15T02:43:48;2.90;99.90
73586;DHT22;61865;50.232;18.614;2023-02-15T02:46:17;2.80;99.90
73586;DHT22;61865;50.232;18.614;2023-02-15T02:48:41;2.70;99.90
73586;DHT22;61865;50.232;18.614;2023-02-15T02:51:04;2.70;99.90
73586;DHT22;61865;50.232;18.614;2023-02-15T02:53:29;2.70;99.90
73586;DHT22;61865;50.232;18.614;2023-02-15T02:55:54;2.60;99.90
73586;DHT22;61865;50.232;18.614;2023-02-15T02:58:20;2.60;99.90
73586;DHT22;61865;50.232;18.614;2023-02-15T03:00:47;2.50;99.90
73586;DHT22;61865;50.232;18.614;2023-02-15T03:03:13;2.60;99.90
73586;DHT22;61865;50.232;18.614;2023-02-15T03:05:41;2.50;99.90
73586;DHT22;61865;50.232;18.614;2023-02-15T03:08:07;2.50;99.90
73586;DHT22;61865;50.232;18.614;2023-02-15T03:10:30;2.50;99.90
73586;DHT22;61865;50.232;18.614;2023-02-15T03:12:52;2.60;99.90
73586;DHT22;61865;50.232;18.614;2023-02-15T03:15:17;2.50;99.90
73586;DHT22;61865;50.232;18.614;2023-02-15T03:17:42;2.50;99.90
73586;DHT22;61865;50.232;18.614;2023-02-15T03:20:08;2.40;99.90
73586;DHT22;61865;50.232;18.614;2023-02-15T03:22:35;2.30;99.90
73586;DHT22;61865;50.232;18.614;2023-02-15T03:25:04;2.20;99.90
73586;DHT22;61865;50.232;18.614;2023-02-15T03:27:31;2.20;99.90
73586;DHT22;61865;50.232;18.614;2023-02-15T03:29:57;2.10;99.90
73586;DHT22;61865;50.232;18.614;2023-02-15T03:32:20;2.00;99.90
73586;DHT22;61865;50.232;18.614;2023-02-15T03:34:43;1.90;99.90
73586;DHT22;61865;50.232;18.614;2023-02-15T03:37:10;1.90;99.90
73586;DHT22;61865;50.232;18.614;2023-02-15T03:39:35;1.80;99.90
73586;DHT22;61865;50.232;18.614;2023-02-15T03:42:07;1.80;99.90
73586;DHT22;61865;50.232;18.614;2023-02-15T03:44:36;1.80;99.90
73586;DHT22;61865;50.232;18.614;2023-02-15T03:47:05;1.70;99.90
73586;DHT22;61865;50.232;18.614;2023-02-15T03:49:32;1.70;99.90
73586;DHT22;61865;50.232;18.614;2023-02-15T03:51:57;1.60;99.90
73586;DHT22;61865;50.232;18.614;2023-02-15T03:54:23;1.50;99.90
73586;DHT22;61865;50.232;18.614;2023-02-15T03:57:08;1.30;99.90
73586;DHT22;61865;50.232;18.614;2023-02-15T03:59:48;1.10;99.90
73586;DHT22;61865;50.232;18.614;2023-02-15T04:02:33;1.00;99.90
73586;DHT22;61865;50.232;18.614;2023-02-15T04:04:58;1.00;99.90
73586;DHT22;61865;50.232;18.614;2023-02-15T04:07:20;1.00;99.90
73586;DHT22;61865;50.232;18.614;2023-02-15T04:09:42;1.00;99.90
73586;DHT22;61865;50.232;18.614;2023-02-15T04:12:23;0.90;99.90
73586;DHT22;61865;50.232;18.614;2023-02-15T04:14:45;0.90;99.90
73586;DHT22;61865;50.232;18.614;2023-02-15T04:17:24;0.90;99.90
73586;DHT22;61865;50.232;18.614;2023-02-15T04:19:46;0.90;99.90
73586;DHT22;61865;50.232;18.614;2023-02-15T04:22:25;1.00;99.90
73586;DHT22;61865;50.232;18.614;2023-02-15T04:25:05;1.10;99.90
73586;DHT22;61865;50.232;18.614;2023-02-15T04:27:35;1.20;99.90
73586;DHT22;61865;50.232;18.614;2023-02-15T04:29:57;1.30;99.90
73586;DHT22;61865;50.232;18.614;2023-02-15T04:32:19;1.40;99.90
73586;DHT22;61865;50.232;18.614;2023-02-15T04:34:41;1.50;99.90
73586;DHT22;61865;50.232;18.614;2023-02-15T04:37:02;1.60;99.90
73586;DHT22;61865;50.232;18.614;2023-02-15T04:39:24;1.50;99.90
73586;DHT22;61865;50.232;18.614;2023-02-15T04:41:46;1.50;99.90
73586;DHT22;61865;50.232;18.614;2023-02-15T04:44:11;1.40;99.90
73586;DHT22;61865;50.232;18.614;2023-02-15T04:46:33;1.40;99.90
73586;DHT22;61865;50.232;18.614;2023-02-15T04:48:56;1.40;99.90
73586;DHT22;61865;50.232;18.614;2023-02-15T04:51:18;1.40;99.90
73586;DHT22;61865;50.232;18.614;2023-02-15T04:53:40;1.50;99.90
73586;DHT22;61865;50.232;18.614;2023-02-15T04:56:02;1.50;99.90
73586;DHT22;61865;50.232;18.614;2023-02-15T04:58:24;1.50;99.90
73586;DHT22;61865;50.232;18.614;2023-02-15T05:00:47;1.60;99.90
73586;DHT22;61865;50.232;18.614;2023-02-15T05:03:09;1.60;99.90
73586;DHT22;61865;50.232;18.614;2023-02-15T05:05:31;1.60;99.90
73586;DHT22;61865;50.232;18.614;2023-02-15T05:07:53;1.70;99.90
73586;DHT22;61865;50.232;18.614;2023-02-15T05:10:15;1.80;99.90
73586;DHT22;61865;50.232;18.614;2023-02-15T05:12:37;1.90;99.90
73586;DHT22;61865;50.232;18.614;2023-02-15T05:14:59;1.90;99.90
73586;DHT22;61865;50.232;18.614;2023-02-15T05:17:22;2.00;99.90
73586;DHT22;61865;50.232;18.614;2023-02-15T05:19:44;2.00;99.90
73586;DHT22;61865;50.232;18.614;2023-02-15T05:22:06;2.10;99.90
73586;DHT22;61865;50.232;18.614;2023-02-15T05:24:28;2.10;99.90
73586;DHT22;61865;50.232;18.614;2023-02-15T05:27:08;2.20;99.90
73586;DHT22;61865;50.232;18.614;2023-02-15T05:29:49;2.30;99.90
73586;DHT22;61865;50.232;18.614;2023-02-15T05:32:12;2.20;99.90
73586;DHT22;61865;50.232;18.614;2023-02-15T05:34:36;2.30;99.90
73586;DHT22;61865;50.232;18.614;2023-02-15T05:36:57;2.40;99.90
73586;DHT22;61865;50.232;18.614;2023-02-15T05:39:19;2.40;99.90
73586;DHT22;61865;50.232;18.614;2023-02-15T05:41:41;2.40;99.90
73586;DHT22;61865;50.232;18.614;2023-02-15T05:44:03;2.40;99.90
73586;DHT22;61865;50.232;18.614;2023-02-15T05:46:25;2.40;99.90
73586;DHT22;61865;50.232;18.614;2023-02-15T05:48:47;2.40;99.90
73586;DHT22;61865;50.232;18.614;2023-02-15T05:51:12;2.40;99.90
73586;DHT22;61865;50.232;18.614;2023-02-15T05:53:36;2.50;99.90
73586;DHT22;61865;50.232;18.614;2023-02-15T05:55:59;2.50;99.90
73586;DHT22;61865;50.232;18.614;2023-02-15T05:58:22;2.50;99.90
73586;DHT22;61865;50.232;18.614;2023-02-15T06:00:44;2.50;99.90
73586;DHT22;61865;50.232;18.614;2023-02-15T06:03:06;2.50;99.90
73586;DHT22;61865;50.232;18.614;2023-02-15T06:05:28;2.60;99.90
73586;DHT22;61865;50.232;18.614;2023-02-15T06:07:51;2.50;99.90
73586;DHT22;61865;50.232;18.614;2023-02-15T06:10:14;2.60;99.90
73586;DHT22;61865;50.232;18.614;2023-02-15T06:12:35;2.60;99.90
73586;DHT22;61865;50.232;18.614;2023-02-15T06:14:57;2.60;99.90
73586;DHT22;61865;50.232;18.614;2023-02-15T06:17:19;2.60;99.90
73586;DHT22;61865;50.232;18.614;2023-02-15T06:19:42;2.70;99.90
73586;DHT22;61865;50.232;18.614;2023-02-15T06:22:04;2.70;99.90
73586;DHT22;61865;50.232;18.614;2023-02-15T06:24:28;2.70;99.90
73586;DHT22;61865;50.232;18.614;2023-02-15T06:26:50;2.70;99.90
73586;DHT22;61865;50.232;18.614;2023-02-15T06:29:12;2.80;99.90
73586;DHT22;61865;50.232;18.614;2023-02-15T06:31:33;2.80;99.90
73586;DHT22;61865;50.232;18.614;2023-02-15T06:33:55;2.80;99.90
73586;DHT22;61865;50.232;18.614;2023-02-15T06:36:21;2.80;99.90
73586;DHT22;61865;50.232;18.614;2023-02-15T06:38:43;2.80;99.90
73586;DHT22;61865;50.232;18.614;2023-02-15T06:41:06;2.80;99.90
73586;DHT22;61865;50.232;18.614;2023-02-15T06:43:28;2.80;99.90
73586;DHT22;61865;50.232;18.614;2023-02-15T06:45:50;2.90;99.90
73586;DHT22;61865;50.232;18.614;2023-02-15T06:48:12;3.00;99.90
73586;DHT22;61865;50.232;18.614;2023-02-15T06:50:34;3.00;99.90
73586;DHT22;61865;50.232;18.614;2023-02-15T06:52:58;3.10;99.90
73586;DHT22;61865;50.232;18.614;2023-02-15T06:55:20;3.10;99.90
73586;DHT22;61865;50.232;18.614;2023-02-15T06:57:43;3.20;99.90
73586;DHT22;61865;50.232;18.614;2023-02-15T07:00:06;3.20;99.90
73586;DHT22;61865;50.232;18.614;2023-02-15T07:02:28;3.30;99.90
73586;DHT22;61865;50.232;18.614;2023-02-15T07:04:50;3.40;99.90
73586;DHT22;61865;50.232;18.614;2023-02-15T07:07:13;3.40;99.90
73586;DHT22;61865;50.232;18.614;2023-02-15T07:09:35;3.40;99.90
73586;DHT22;61865;50.232;18.614;2023-02-15T07:11:57;3.40;99.90
73586;DHT22;61865;50.232;18.614;2023-02-15T07:14:38;3.40;99.90
73586;DHT22;61865;50.232;18.614;2023-02-15T07:17:01;3.50;99.90
73586;DHT22;61865;50.232;18.614;2023-02-15T07:19:22;3.60;99.90
73586;DHT22;61865;50.232;18.614;2023-02-15T07:21:44;3.70;99.90
73586;DHT22;61865;50.232;18.614;2023-02-15T07:24:07;3.70;99.90
73586;DHT22;61865;50.232;18.614;2023-02-15T07:26:31;3.70;99.90
73586;DHT22;61865;50.232;18.614;2023-02-15T07:28:53;3.70;99.90
73586;DHT22;61865;50.232;18.614;2023-02-15T07:31:16;3.80;99.90
73586;DHT22;61865;50.232;18.614;2023-02-15T07:33:38;3.80;99.90
73586;DHT22;61865;50.232;18.614;2023-02-15T07:36:03;3.90;99.90
73586;DHT22;61865;50.232;18.614;2023-02-15T07:38:27;3.90;99.90
73586;DHT22;61865;50.232;18.614;2023-02-15T07:40:49;3.90;99.90
73586;DHT22;61865;50.232;18.614;2023-02-15T07:43:11;4.00;99.90
73586;DHT22;61865;50.232;18.614;2023-02-15T07:45:33;4.00;99.90
73586;DHT22;61865;50.232;18.614;2023-02-15T07:47:56;4.10;99.90
73586;DHT22;61865;50.232;18.614;2023-02-15T07:50:18;4.10;99.90
73586;DHT22;61865;50.232;18.614;2023-02-15T07:52:40;4.10;99.90
73586;DHT22;61865;50.232;18.614;2023-02-15T07:55:02;4.10;99.90
73586;DHT22;61865;50.232;18.614;2023-02-15T07:57:25;4.00;99.90
73586;DHT22;61865;50.232;18.614;2023-02-15T07:59:47;4.00;99.90
73586;DHT22;61865;50.232;18.614;2023-02-15T08:02:10;3.90;99.90
73586;DHT22;61865;50.232;18.614;2023-02-15T08:04:33;3.80;99.90
73586;DHT22;61865;50.232;18.614;2023-02-15T08:06:55;3.70;99.90
73586;DHT22;61865;50.232;18.614;2023-02-15T08:09:17;3.60;99.90
73586;DHT22;61865;50.232;18.614;2023-02-15T08:11:39;3.40;99.90
73586;DHT22;61865;50.232;18.614;2023-02-15T08:14:03;3.40;99.90
73586;DHT22;61865;50.232;18.614;2023-02-15T08:16:27;3.30;99.90
73586;DHT22;61865;50.232;18.614;2023-02-15T08:18:49;3.40;99.90
73586;DHT22;61865;50.232;18.614;2023-02-15T08:21:13;3.40;99.90
73586;DHT22;61865;50.232;18.614;2023-02-15T08:23:35;3.30;99.90
73586;DHT22;61865;50.232;18.614;2023-02-15T08:25:59;3.30;99.90
73586;DHT22;61865;50.232;18.614;2023-02-15T08:28:21;3.30;99.90
73586;DHT22;61865;50.232;18.614;2023-02-15T08:30:43;3.40;99.90
73586;DHT22;61865;50.232;18.614;2023-02-15T08:33:05;3.40;99.90
73586;DHT22;61865;50.232;18.614;2023-02-15T08:35:27;3.40;99.90
73586;DHT22;61865;50.232;18.614;2023-02-15T08:37:51;3.60;99.90
73586;DHT22;61865;50.232;18.614;2023-02-15T08:40:13;3.70;99.90
73586;DHT22;61865;50.232;18.614;2023-02-15T08:42:35;3.70;99.90
73586;DHT22;61865;50.232;18.614;2023-02-15T08:44:57;3.70;99.90
73586;DHT22;61865;50.232;18.614;2023-02-15T08:47:19;3.70;99.90
73586;DHT22;61865;50.232;18.614;2023-02-15T08:49:41;3.70;99.90
73586;DHT22;61865;50.232;18.614;2023-02-15T08:52:04;3.80;99.90
73586;DHT22;61865;50.232;18.614;2023-02-15T08:54:27;3.80;99.90
73586;DHT22;61865;50.232;18.614;2023-02-15T08:56:50;3.90;99.90
73586;DHT22;61865;50.232;18.614;2023-02-15T08:59:14;3.90;99.90
73586;DHT22;61865;50.232;18.614;2023-02-15T09:01:37;3.90;99.90
73586;DHT22;61865;50.232;18.614;2023-02-15T09:04:01;3.90;99.90
73586;DHT22;61865;50.232;18.614;2023-02-15T09:06:25;4.00;99.90
73586;DHT22;61865;50.232;18.614;2023-02-15T09:08:47;4.00;99.90
73586;DHT22;61865;50.232;18.614;2023-02-15T09:11:13;4.10;99.90
73586;DHT22;61865;50.232;18.614;2023-02-15T09:13:37;4.20;99.90
73586;DHT22;61865;50.232;18.614;2023-02-15T09:16:01;4.20;99.90
73586;DHT22;61865;50.232;18.614;2023-02-15T09:18:23;4.30;99.90
73586;DHT22;61865;50.232;18.614;2023-02-15T09:20:45;4.30;99.90
73586;DHT22;61865;50.232;18.614;2023-02-15T09:23:08;4.30;99.90
73586;DHT22;61865;50.232;18.614;2023-02-15T09:25:30;4.30;99.90
73586;DHT22;61865;50.232;18.614;2023-02-15T09:27:53;4.40;99.90
73586;DHT22;61865;50.232;18.614;2023-02-15T09:30:15;4.40;99.90
73586;DHT22;61865;50.232;18.614;2023-02-15T09:32:38;4.50;99.90
73586;DHT22;61865;50.232;18.614;2023-02-15T09:35:00;4.50;99.90
73586;DHT22;61865;50.232;18.614;2023-02-15T09:37:22;4.50;99.90
73586;DHT22;61865;50.232;18.614;2023-02-15T09:39:44;4.50;99.90
73586;DHT22;61865;50.232;18.614;2023-02-15T09:45:34;4.70;99.90
73586;DHT22;61865;50.232;18.614;2023-02-15T09:48:16;4.80;99.90
73586;DHT22;61865;50.232;18.614;2023-02-15T09:50:51;4.80;99.90
73586;DHT22;61865;50.232;18.614;2023-02-15T09:53:31;4.80;99.90
73586;DHT22;61865;50.232;18.614;2023-02-15T09:56:04;4.90;99.90
73586;DHT22;61865;50.232;18.614;2023-02-15T09:58:33;4.90;99.90
73586;DHT22;61865;50.232;18.614;2023-02-15T10:01:04;5.00;99.90
73586;DHT22;61865;50.232;18.614;2023-02-15T10:03:42;5.00;99.90
73586;DHT22;61865;50.232;18.614;2023-02-15T10:06:42;5.10;99.90
73586;DHT22;61865;50.232;18.614;2023-02-15T10:09:34;5.10;99.90
73586;DHT22;61865;50.232;18.614;2023-02-15T10:12:23;5.10;99.90
73586;DHT22;61865;50.232;18.614;2023-02-15T10:15:06;5.20;99.90
73586;DHT22;61865;50.232;18.614;2023-02-15T10:17:53;5.20;99.90
73586;DHT22;61865;50.232;18.614;2023-02-15T10:20:30;5.40;99.90
73586;DHT22;61865;50.232;18.614;2023-02-15T10:23:18;5.40;99.90
73586;DHT22;61865;50.232;18.614;2023-02-15T10:25:53;5.40;99.90
73586;DHT22;61865;50.232;18.614;2023-02-15T10:28:22;5.40;99.90
73586;DHT22;61865;50.232;18.614;2023-02-15T10:30:47;5.50;99.90
73586;DHT22;61865;50.232;18.614;2023-02-15T10:33:22;5.50;99.90
73586;DHT22;61865;50.232;18.614;2023-02-15T10:35:53;5.50;99.90
73586;DHT22;61865;50.232;18.614;2023-02-15T10:38:27;5.60;99.90
73586;DHT22;61865;50.232;18.614;2023-02-15T10:41:01;5.70;99.90
73586;DHT22;61865;50.232;18.614;2023-02-15T10:43:41;5.70;99.90
73586;DHT22;61865;50.232;18.614;2023-02-15T10:46:14;5.80;99.90
73586;DHT22;61865;50.232;18.614;2023-02-15T10:49:05;5.90;99.90
73586;DHT22;61865;50.232;18.614;2023-02-15T10:51:39;5.90;99.90
73586;DHT22;61865;50.232;18.614;2023-02-15T10:54:13;6.00;99.90
73586;DHT22;61865;50.232;18.614;2023-02-15T10:56:44;6.10;99.90
73586;DHT22;61865;50.232;18.614;2023-02-15T11:02:13;6.10;99.90
73586;DHT22;61865;50.232;18.614;2023-02-15T11:04:45;6.10;99.90
73586;DHT22;61865;50.232;18.614;2023-02-15T11:07:16;6.20;99.90
73586;DHT22;61865;50.232;18.614;2023-02-15T11:09:42;6.30;99.90
73586;DHT22;61865;50.232;18.614;2023-02-15T11:12:11;6.30;99.90
73586;DHT22;61865;50.232;18.614;2023-02-15T11:14:38;6.30;99.90
73586;DHT22;61865;50.232;18.614;2023-02-15T11:17:05;6.30;99.90
73586;DHT22;61865;50.232;18.614;2023-02-15T11:19:33;6.40;99.90
73586;DHT22;61865;50.232;18.614;2023-02-15T11:21:59;6.40;99.90
73586;DHT22;61865;50.232;18.614;2023-02-15T11:24:26;6.40;99.90
73586;DHT22;61865;50.232;18.614;2023-02-15T11:26:53;6.50;99.90
73586;DHT22;61865;50.232;18.614;2023-02-15T11:29:23;6.50;99.90
73586;DHT22;61865;50.232;18.614;2023-02-15T11:31:51;6.60;99.90
73586;DHT22;61865;50.232;18.614;2023-02-15T11:34:20;6.60;99.90
73586;DHT22;61865;50.232;18.614;2023-02-15T11:36:43;6.60;99.90
73586;DHT22;61865;50.232;18.614;2023-02-15T11:39:12;6.60;99.90
73586;DHT22;61865;50.232;18.614;2023-02-15T11:41:37;6.70;99.90
73586;DHT22;61865;50.232;18.614;2023-02-15T11:44:06;6.80;99.90
73586;DHT22;61865;50.232;18.614;2023-02-15T11:46:33;6.90;99.90
73586;DHT22;61865;50.232;18.614;2023-02-15T11:48:55;6.90;99.90
73586;DHT22;61865;50.232;18.614;2023-02-15T11:51:21;7.00;99.90
73586;DHT22;61865;50.232;18.614;2023-02-15T11:53:45;7.00;99.90
73586;DHT22;61865;50.232;18.614;2023-02-15T11:56:14;7.10;99.90
73586;DHT22;61865;50.232;18.614;2023-02-15T11:58:41;7.10;99.90
73586;DHT22;61865;50.232;18.614;2023-02-15T12:01:10;7.10;99.90
73586;DHT22;61865;50.232;18.614;2023-02-15T12:03:43;7.10;99.90
73586;DHT22;61865;50.232;18.614;2023-02-15T12:06:13;7.10;99.90
73586;DHT22;61865;50.232;18.614;2023-02-15T12:08:38;7.20;99.90
73586;DHT22;61865;50.232;18.614;2023-02-15T12:11:06;7.30;99.90
73586;DHT22;61865;50.232;18.614;2023-02-15T12:13:34;7.40;99.90
73586;DHT22;61865;50.232;18.614;2023-02-15T12:15:57;7.40;99.90
73586;DHT22;61865;50.232;18.614;2023-02-15T12:18:36;7.50;99.90
73586;DHT22;61865;50.232;18.614;2023-02-15T12:21:00;7.50;99.90
73586;DHT22;61865;50.232;18.614;2023-02-15T12:23:24;7.50;99.90
73586;DHT22;61865;50.232;18.614;2023-02-15T12:25:51;7.50;99.90
73586;DHT22;61865;50.232;18.614;2023-02-15T12:28:24;7.60;99.90
73586;DHT22;61865;50.232;18.614;2023-02-15T12:30:48;7.60;99.90
73586;DHT22;61865;50.232;18.614;2023-02-15T12:33:17;7.60;99.90
73586;DHT22;61865;50.232;18.614;2023-02-15T12:35:45;7.60;99.90
73586;DHT22;61865;50.232;18.614;2023-02-15T12:38:22;7.70;99.90
73586;DHT22;61865;50.232;18.614;2023-02-15T12:40:56;7.70;99.90
73586;DHT22;61865;50.232;18.614;2023-02-15T12:43:26;7.80;99.90
73586;DHT22;61865;50.232;18.614;2023-02-15T12:45:50;7.90;99.90
73586;DHT22;61865;50.232;18.614;2023-02-15T12:48:17;7.90;99.90
73586;DHT22;61865;50.232;18.614;2023-02-15T12:50:40;8.00;99.90
73586;DHT22;61865;50.232;18.614;2023-02-15T12:53:07;8.00;99.90
73586;DHT22;61865;50.232;18.614;2023-02-15T12:55:30;8.00;99.90
73586;DHT22;61865;50.232;18.614;2023-02-15T12:58:06;7.90;99.90
73586;DHT22;61865;50.232;18.614;2023-02-15T13:00:29;8.00;99.90
73586;DHT22;61865;50.232;18.614;2023-02-15T13:02:55;8.10;99.90
73586;DHT22;61865;50.232;18.614;2023-02-15T13:05:22;8.10;99.90
73586;DHT22;61865;50.232;18.614;2023-02-15T13:07:50;8.10;99.90
73586;DHT22;61865;50.232;18.614;2023-02-15T13:10:22;8.10;99.90
73586;DHT22;61865;50.232;18.614;2023-02-15T13:12:46;8.10;99.90
73586;DHT22;61865;50.232;18.614;2023-02-15T13:15:27;8.10;99.90
73586;DHT22;61865;50.232;18.614;2023-02-15T13:17:50;8.10;99.90
73586;DHT22;61865;50.232;18.614;2023-02-15T13:20:19;8.10;99.90
73586;DHT22;61865;50.232;18.614;2023-02-15T13:22:45;8.10;99.90
73586;DHT22;61865;50.232;18.614;2023-02-15T13:25:13;8.10;99.90
73586;DHT22;61865;50.232;18.614;2023-02-15T13:27:38;8.10;99.90
73586;DHT22;61865;50.232;18.614;2023-02-15T13:30:04;8.10;99.90
73586;DHT22;61865;50.232;18.614;2023-02-15T13:32:35;8.20;99.90
73586;DHT22;61865;50.232;18.614;2023-02-15T13:34:59;8.20;99.90
73586;DHT22;61865;50.232;18.614;2023-02-15T13:37:35;8.20;99.90
73586;DHT22;61865;50.232;18.614;2023-02-15T13:40:02;8.20;99.90
73586;DHT22;61865;50.232;18.614;2023-02-15T13:42:30;8.30;99.90
73586;DHT22;61865;50.232;18.614;2023-02-15T13:45:13;8.20;99.90
73586;DHT22;61865;50.232;18.614;2023-02-15T13:47:47;8.20;99.90
73586;DHT22;61865;50.232;18.614;2023-02-15T13:50:21;8.20;99.90
73586;DHT22;61865;50.232;18.614;2023-02-15T13:52:54;8.20;99.90
73586;DHT22;61865;50.232;18.614;2023-02-15T13:55:37;8.20;99.90
73586;DHT22;61865;50.232;18.614;2023-02-15T14:01:08;8.10;99.90
73586;DHT22;61865;50.232;18.614;2023-02-15T14:03:58;8.10;99.90
73586;DHT22;61865;50.232;18.614;2023-02-15T14:06:41;8.10;99.90
73586;DHT22;61865;50.232;18.614;2023-02-15T14:09:20;8.10;99.90
73586;DHT22;61865;50.232;18.614;2023-02-15T14:11:52;8.10;99.90
73586;DHT22;61865;50.232;18.614;2023-02-15T14:14:41;8.10;99.90
73586;DHT22;61865;50.232;18.614;2023-02-15T14:17:15;8.10;99.90
73586;DHT22;61865;50.232;18.614;2023-02-15T14:19:43;8.10;99.90
73586;DHT22;61865;50.232;18.614;2023-02-15T14:22:12;8.10;99.90
73586;DHT22;61865;50.232;18.614;2023-02-15T14:24:42;8.00;99.90
73586;DHT22;61865;50.232;18.614;2023-02-15T14:27:14;8.00;99.90
73586;DHT22;61865;50.232;18.614;2023-02-15T14:29:46;8.00;99.90
73586;DHT22;61865;50.232;18.614;2023-02-15T14:32:11;8.00;99.90
73586;DHT22;61865;50.232;18.614;2023-02-15T14:34:40;7.90;99.90
73586;DHT22;61865;50.232;18.614;2023-02-15T14:37:04;7.80;99.90
73586;DHT22;61865;50.232;18.614;2023-02-15T14:39:41;7.80;99.90
73586;DHT22;61865;50.232;18.614;2023-02-15T14:42:28;7.80;99.90
73586;DHT22;61865;50.232;18.614;2023-02-15T14:44:58;7.80;99.90
73586;DHT22;61865;50.232;18.614;2023-02-15T14:47:26;7.70;99.90
73586;DHT22;61865;50.232;18.614;2023-02-15T14:49:50;7.70;99.90
73586;DHT22;61865;50.232;18.614;2023-02-15T14:52:13;7.70;99.90
73586;DHT22;61865;50.232;18.614;2023-02-15T14:54:58;7.60;99.90
73586;DHT22;61865;50.232;18.614;2023-02-15T14:57:23;7.60;99.90
73586;DHT22;61865;50.232;18.614;2023-02-15T14:59:49;7.60;99.90
73586;DHT22;61865;50.232;18.614;2023-02-15T15:02:16;7.50;99.90
73586;DHT22;61865;50.232;18.614;2023-02-15T15:04:41;7.40;99.90
73586;DHT22;61865;50.232;18.614;2023-02-15T15:07:12;7.40;99.90
73586;DHT22;61865;50.232;18.614;2023-02-15T15:09:37;7.30;99.90
73586;DHT22;61865;50.232;18.614;2023-02-15T15:14:53;7.20;99.90
73586;DHT22;61865;50.232;18.614;2023-02-15T15:17:52;7.10;99.90
73586;DHT22;61865;50.232;18.614;2023-02-15T15:20:40;7.00;99.90
73586;DHT22;61865;50.232;18.614;2023-02-15T15:23:38;6.90;99.90
73586;DHT22;61865;50.232;18.614;2023-02-15T15:26:28;6.80;99.90
73586;DHT22;61865;50.232;18.614;2023-02-15T15:29:00;6.70;99.90
73586;DHT22;61865;50.232;18.614;2023-02-15T15:31:27;6.60;99.90
73586;DHT22;61865;50.232;18.614;2023-02-15T15:37:42;6.40;99.90
73586;DHT22;61865;50.232;18.614;2023-02-15T15:46:38;6.00;99.90
73586;DHT22;61865;50.232;18.614;2023-02-15T15:49:08;5.90;99.90
73586;DHT22;61865;50.232;18.614;2023-02-15T15:51:33;5.80;99.90
73586;DHT22;61865;50.232;18.614;2023-02-15T15:53:58;5.70;99.90